Time,TemperatureF,DewpointF,PressureIn,WindDirection,WindDirectionDegrees,WindSpeedMPH,WindSpeedGustMPH,Humidity,HourlyPrecipIn,Conditions,Clouds,dailyrainin,SoftwareType,DateUTC
2013-04-01 00:03:00,32.4,16.7,30.01,ENE,68,7.0,10.0,52,0.00,,,0.00,meteohub,2013-03-31 23:03:00,
2013-04-01 00:09:00,32.2,16.5,30.01,ENE,68,6.0,10.0,52,0.00,,,0.00,meteohub,2013-03-31 23:09:00,
2013-04-01 00:14:00,32.2,16.5,30.01,East,90,6.0,10.0,52,0.00,,,0.00,meteohub,2013-03-31 23:14:00,
2013-04-01 00:19:00,32.2,16.5,29.99,East,90,8.0,9.0,52,0.00,,,0.00,meteohub,2013-03-31 23:19:00,
2013-04-01 00:24:00,32.2,16.5,29.99,East,90,9.0,9.0,52,0.00,,,0.00,meteohub,2013-03-31 23:24:00,
2013-04-01 00:30:00,32.0,16.3,29.99,ENE,68,6.0,9.0,52,0.00,,,0.00,meteohub,2013-03-31 23:30:00,
2013-04-01 00:35:00,32.0,16.3,30.01,East,90,6.0,9.0,52,0.00,,,0.00,meteohub,2013-03-31 23:35:00,
2013-04-01 00:40:00,31.8,16.2,30.01,ENE,68,6.0,9.0,52,0.00,,,0.00,meteohub,2013-03-31 23:40:00,
2013-04-01 00:45:00,31.8,16.2,30.01,East,90,5.0,9.0,52,0.00,,,0.00,meteohub,2013-03-31 23:45:00,
2013-04-01 00:50:00,31.8,16.2,30.01,East,90,6.0,9.0,52,0.00,,,0.00,meteohub,2013-03-31 23:50:00,
2013-04-01 00:55:00,31.8,16.2,30.01,ENE,68,5.0,9.0,52,0.00,,,0.00,meteohub,2013-03-31 23:55:00,
2013-04-01 01:03:00,31.6,16.0,29.99,ENE,68,5.0,9.0,52,0.00,,,0.00,meteohub,2013-04-01 00:03:00,
2013-04-01 01:08:00,31.6,16.0,29.99,ENE,68,6.0,8.0,52,0.00,,,0.00,meteohub,2013-04-01 00:08:00,
2013-04-01 01:13:00,31.5,16.0,29.99,ENE,68,6.0,8.0,52,0.00,,,0.00,meteohub,2013-04-01 00:13:00,
2013-04-01 01:19:00,31.5,16.0,30.01,NE,45,4.0,8.0,52,0.00,,,0.00,meteohub,2013-04-01 00:19:00,
2013-04-01 01:24:00,31.3,15.8,30.01,NE,45,6.0,8.0,52,0.00,,,0.00,meteohub,2013-04-01 00:24:00,
2013-04-01 01:29:00,31.1,15.6,30.01,NE,45,6.0,8.0,52,0.00,,,0.00,meteohub,2013-04-01 00:29:00,
2013-04-01 01:34:00,31.1,15.6,30.01,NE,45,5.0,6.0,52,0.00,,,0.00,meteohub,2013-04-01 00:34:00,
2013-04-01 01:39:00,30.9,15.4,30.01,NE,45,5.0,8.0,52,0.00,,,0.00,meteohub,2013-04-01 00:39:00,
2013-04-01 01:44:00,30.9,15.4,30.01,NE,45,6.0,8.0,52,0.00,,,0.00,meteohub,2013-04-01 00:44:00,
2013-04-01 01:50:00,30.7,15.3,29.99,NE,45,6.0,8.0,52,0.00,,,0.00,meteohub,2013-04-01 00:50:00,
2013-04-01 01:55:00,30.6,15.4,29.99,NE,45,6.0,7.0,53,0.00,,,0.00,meteohub,2013-04-01 00:55:00,
2013-04-01 02:00:00,30.6,15.4,29.99,NE,45,5.0,7.0,53,0.00,,,0.00,meteohub,2013-04-01 01:00:00,
2013-04-01 02:05:00,30.4,15.3,29.99,NE,45,5.0,8.0,53,0.00,,,0.00,meteohub,2013-04-01 01:05:00,
2013-04-01 02:11:00,30.4,15.3,29.99,NE,45,6.0,8.0,53,0.00,,,0.00,meteohub,2013-04-01 01:11:00,
2013-04-01 02:16:00,30.4,15.3,29.99,NE,45,5.0,8.0,53,0.00,,,0.00,meteohub,2013-04-01 01:16:00,
2013-04-01 02:21:00,30.4,15.3,29.99,NE,45,6.0,8.0,53,0.00,,,0.00,meteohub,2013-04-01 01:21:00,
2013-04-01 02:26:00,30.2,15.6,29.99,NE,45,6.0,8.0,54,0.00,,,0.00,meteohub,2013-04-01 01:26:00,
2013-04-01 02:31:00,30.2,15.6,29.99,NE,45,5.0,8.0,54,0.00,,,0.00,meteohub,2013-04-01 01:31:00,
2013-04-01 02:37:00,30.2,15.6,29.99,NE,45,7.0,7.0,54,0.00,,,0.00,meteohub,2013-04-01 01:37:00,
2013-04-01 02:43:00,30.2,15.6,29.99,NE,45,6.0,8.0,54,0.00,,,0.00,meteohub,2013-04-01 01:43:00,
2013-04-01 02:48:00,30.0,15.4,30.01,NE,45,5.0,8.0,54,0.00,,,0.00,meteohub,2013-04-01 01:48:00,
2013-04-01 02:54:00,30.0,15.8,30.01,NE,45,6.0,8.0,55,0.00,,,0.00,meteohub,2013-04-01 01:54:00,
2013-04-01 02:59:00,30.0,15.8,30.01,NE,45,6.0,8.0,55,0.00,,,0.00,meteohub,2013-04-01 01:59:00,
2013-04-01 03:04:00,29.8,15.6,29.99,NE,45,6.0,7.0,55,0.00,,,0.00,meteohub,2013-04-01 02:04:00,
2013-04-01 03:10:00,29.8,15.6,29.99,NE,45,6.0,7.0,55,0.00,,,0.00,meteohub,2013-04-01 02:10:00,
2013-04-01 03:16:00,29.8,15.6,29.99,NE,45,6.0,8.0,55,0.00,,,0.00,meteohub,2013-04-01 02:16:00,
2013-04-01 03:21:00,29.8,15.6,29.99,NE,45,5.0,8.0,55,0.00,,,0.00,meteohub,2013-04-01 02:21:00,
2013-04-01 03:26:00,29.7,15.4,29.99,NE,45,6.0,8.0,55,0.00,,,0.00,meteohub,2013-04-01 02:26:00,
2013-04-01 03:32:00,29.7,15.4,29.99,NE,45,6.0,7.0,55,0.00,,,0.00,meteohub,2013-04-01 02:32:00,
2013-04-01 03:38:00,29.7,15.4,29.99,NE,45,6.0,7.0,55,0.00,,,0.00,meteohub,2013-04-01 02:38:00,
2013-04-01 03:43:00,29.5,15.3,29.99,NE,45,4.0,7.0,55,0.00,,,0.00,meteohub,2013-04-01 02:43:00,
2013-04-01 03:48:00,29.5,15.3,29.99,NE,45,4.0,7.0,55,0.00,,,0.00,meteohub,2013-04-01 02:48:00,
2013-04-01 03:53:00,29.5,15.3,29.99,NE,45,4.0,6.0,55,0.00,,,0.00,meteohub,2013-04-01 02:53:00,
2013-04-01 03:58:00,29.3,15.1,29.99,NE,45,6.0,6.0,55,0.00,,,0.00,meteohub,2013-04-01 02:58:00,
2013-04-01 04:03:00,29.3,15.6,29.99,ENE,68,4.0,6.0,56,0.00,,,0.00,meteohub,2013-04-01 03:03:00,
2013-04-01 04:08:00,29.1,15.4,29.99,ENE,68,6.0,6.0,56,0.00,,,0.00,meteohub,2013-04-01 03:08:00,
2013-04-01 04:13:00,29.1,15.4,29.99,NE,45,5.0,6.0,56,0.00,,,0.00,meteohub,2013-04-01 03:13:00,
2013-04-01 04:19:00,29.1,15.4,29.99,NE,45,6.0,6.0,56,0.00,,,0.00,meteohub,2013-04-01 03:19:00,
2013-04-01 04:24:00,28.9,15.6,29.99,NE,45,5.0,6.0,57,0.00,,,0.00,meteohub,2013-04-01 03:24:00,
2013-04-01 04:29:00,28.8,15.4,29.99,NNE,22,5.0,6.0,57,0.00,,,0.00,meteohub,2013-04-01 03:29:00,
2013-04-01 04:34:00,28.6,15.3,29.99,NNE,22,3.0,6.0,57,0.00,,,0.00,meteohub,2013-04-01 03:34:00,
2013-04-01 04:39:00,28.4,15.1,29.99,NNE,22,4.0,6.0,57,0.00,,,0.00,meteohub,2013-04-01 03:39:00,
2013-04-01 04:45:00,28.2,15.4,29.99,NNE,22,4.0,5.0,58,0.00,,,0.00,meteohub,2013-04-01 03:45:00,
2013-04-01 04:50:00,28.0,15.3,29.99,NE,45,3.0,4.0,58,0.00,,,0.00,meteohub,2013-04-01 03:50:00,
2013-04-01 04:55:00,27.9,15.1,29.99,NE,45,2.0,4.0,58,0.00,,,0.00,meteohub,2013-04-01 03:55:00,
2013-04-01 05:00:00,27.9,15.1,29.99,NNE,22,3.0,4.0,58,0.00,,,0.00,meteohub,2013-04-01 04:00:00,
2013-04-01 05:01:00,27.9,15.1,29.99,NE,45,4.0,4.0,58,0.00,,,0.00,meteohub,2013-04-01 04:01:00,
2013-04-01 05:02:00,27.9,15.1,29.99,NE,45,4.0,4.0,58,0.00,,,0.00,meteohub,2013-04-01 04:02:00,
2013-04-01 05:03:00,27.9,15.1,29.99,NNE,22,4.0,4.0,58,0.00,,,0.00,meteohub,2013-04-01 04:03:00,
2013-04-01 05:08:00,27.9,15.4,29.99,NNE,22,4.0,4.0,59,0.00,,,0.00,meteohub,2013-04-01 04:08:00,
2013-04-01 05:13:00,27.9,15.4,29.99,NNE,22,4.0,5.0,59,0.00,,,0.00,meteohub,2013-04-01 04:13:00,
2013-04-01 05:18:00,27.9,15.4,29.99,NNE,22,4.0,5.0,59,0.00,,,0.00,meteohub,2013-04-01 04:18:00,
2013-04-01 05:24:00,27.9,15.8,29.99,NE,45,3.0,5.0,60,0.00,,,0.00,meteohub,2013-04-01 04:24:00,
2013-04-01 05:29:00,27.9,15.8,29.99,ENE,68,2.0,5.0,60,0.00,,,0.00,meteohub,2013-04-01 04:29:00,
2013-04-01 05:34:00,27.7,15.6,29.99,NE,45,4.0,4.0,60,0.00,,,0.00,meteohub,2013-04-01 04:34:00,
2013-04-01 05:39:00,28.0,16.0,29.99,ENE,68,6.0,6.0,60,0.00,,,0.00,meteohub,2013-04-01 04:39:00,
2013-04-01 05:44:00,28.4,17.1,29.99,ENE,68,4.0,6.0,62,0.00,,,0.00,meteohub,2013-04-01 04:44:00,
2013-04-01 05:50:00,28.8,17.1,29.99,East,90,9.0,9.0,61,0.00,,,0.00,meteohub,2013-04-01 04:50:00,
2013-04-01 05:56:00,29.1,17.8,29.99,ENE,68,5.0,9.0,62,0.00,,,0.00,meteohub,2013-04-01 04:56:00,
2013-04-01 06:01:00,29.5,18.1,29.99,East,90,3.0,9.0,62,0.00,,,0.00,meteohub,2013-04-01 05:01:00,
2013-04-01 06:06:00,29.7,18.3,29.99,ENE,68,4.0,6.0,62,0.00,,,0.00,meteohub,2013-04-01 05:06:00,
2013-04-01 06:11:00,30.2,18.9,29.99,ESE,112,3.0,6.0,62,0.00,,,0.00,meteohub,2013-04-01 05:11:00,
2013-04-01 06:16:00,30.2,18.3,29.99,East,90,3.0,6.0,61,0.00,,,0.00,meteohub,2013-04-01 05:16:00,
2013-04-01 06:21:00,30.2,18.3,30.01,East,90,3.0,6.0,61,0.00,,,0.00,meteohub,2013-04-01 05:21:00,
2013-04-01 06:27:00,30.4,18.1,30.01,East,90,3.0,4.0,60,0.00,,,0.00,meteohub,2013-04-01 05:27:00,
2013-04-01 06:32:00,30.4,18.1,30.01,East,90,3.0,4.0,60,0.00,,,0.00,meteohub,2013-04-01 05:32:00,
2013-04-01 06:37:00,30.6,18.3,29.99,East,90,4.0,4.0,60,0.00,,,0.00,meteohub,2013-04-01 05:37:00,
2013-04-01 06:42:00,30.7,18.5,29.99,East,90,3.0,4.0,60,0.00,,,0.00,meteohub,2013-04-01 05:42:00,
2013-04-01 06:47:00,30.9,18.7,29.99,East,90,2.0,5.0,60,0.00,,,0.00,meteohub,2013-04-01 05:47:00,
2013-04-01 06:52:00,31.1,18.9,29.99,East,90,5.0,5.0,60,0.00,,,0.00,meteohub,2013-04-01 05:52:00,
2013-04-01 06:57:00,31.1,18.5,29.99,ENE,68,3.0,5.0,59,0.00,,,0.00,meteohub,2013-04-01 05:57:00,
2013-04-01 07:02:00,31.3,18.7,29.99,East,90,5.0,5.0,59,0.00,,,0.00,meteohub,2013-04-01 06:02:00,
2013-04-01 07:07:00,31.5,18.9,29.99,East,90,6.0,6.0,59,0.00,,,0.00,meteohub,2013-04-01 06:07:00,
2013-04-01 07:13:00,31.8,19.2,29.99,East,90,4.0,6.0,59,0.00,,,0.00,meteohub,2013-04-01 06:13:00,
2013-04-01 07:18:00,32.0,19.4,29.99,East,90,6.0,6.0,59,0.00,,,0.00,meteohub,2013-04-01 06:18:00,
2013-04-01 07:23:00,32.2,19.6,29.99,East,90,4.0,6.0,59,0.00,,,0.00,meteohub,2013-04-01 06:23:00,
2013-04-01 07:28:00,32.4,19.8,29.99,East,90,6.0,6.0,59,0.00,,,0.00,meteohub,2013-04-01 06:28:00,
2013-04-01 07:33:00,32.5,19.4,29.99,East,90,5.0,7.0,58,0.00,,,0.00,meteohub,2013-04-01 06:33:00,
2013-04-01 07:38:00,32.5,19.4,29.99,East,90,5.0,7.0,58,0.00,,,0.00,meteohub,2013-04-01 06:38:00,
2013-04-01 07:43:00,32.5,19.4,29.99,East,90,5.0,7.0,58,0.00,,,0.00,meteohub,2013-04-01 06:43:00,
2013-04-01 07:48:00,32.7,19.6,30.01,East,90,6.0,7.0,58,0.00,,,0.00,meteohub,2013-04-01 06:48:00,
2013-04-01 07:53:00,32.7,18.9,30.01,ENE,68,6.0,7.0,56,0.00,,,0.00,meteohub,2013-04-01 06:53:00,
2013-04-01 07:59:00,32.9,18.5,30.01,East,90,8.0,10.0,55,0.00,,,0.00,meteohub,2013-04-01 06:59:00,
2013-04-01 08:04:00,33.1,18.7,30.01,East,90,4.0,10.0,55,0.00,,,0.00,meteohub,2013-04-01 07:04:00,
2013-04-01 08:09:00,33.3,18.9,30.01,East,90,3.0,10.0,55,0.00,,,0.00,meteohub,2013-04-01 07:09:00,
2013-04-01 08:15:00,33.4,19.0,30.01,East,90,6.0,6.0,55,0.00,,,0.00,meteohub,2013-04-01 07:15:00,
2013-04-01 08:20:00,33.6,18.9,30.01,ENE,68,4.0,7.0,54,0.00,,,0.00,meteohub,2013-04-01 07:20:00,
2013-04-01 08:25:00,33.8,18.5,30.01,East,90,6.0,7.0,53,0.00,,,0.00,meteohub,2013-04-01 07:25:00,
2013-04-01 08:30:00,33.8,18.5,30.01,ESE,112,15.0,15.0,53,0.00,,,0.00,meteohub,2013-04-01 07:30:00,
2013-04-01 08:35:00,34.0,17.8,30.01,ENE,68,11.0,15.0,51,0.00,,,0.00,meteohub,2013-04-01 07:35:00,
2013-04-01 08:41:00,34.0,16.3,30.01,East,90,9.0,15.0,48,0.00,,,0.00,meteohub,2013-04-01 07:41:00,
2013-04-01 08:46:00,34.2,16.2,30.01,East,90,9.0,15.0,47,0.00,,,0.00,meteohub,2013-04-01 07:46:00,
2013-04-01 08:51:00,34.3,15.3,30.01,East,90,14.0,17.0,45,0.00,,,0.00,meteohub,2013-04-01 07:51:00,
2013-04-01 08:56:00,34.3,15.8,30.01,ESE,112,14.0,17.0,46,0.00,,,0.00,meteohub,2013-04-01 07:56:00,
2013-04-01 09:02:00,34.5,16.0,30.01,SE,135,9.0,17.0,46,0.00,,,0.00,meteohub,2013-04-01 08:02:00,
2013-04-01 09:07:00,34.5,16.0,30.01,East,90,10.0,17.0,46,0.00,,,0.00,meteohub,2013-04-01 08:07:00,
2013-04-01 09:12:00,34.7,16.2,30.01,ESE,112,13.0,17.0,46,0.00,,,0.00,meteohub,2013-04-01 08:12:00,
2013-04-01 09:17:00,34.7,15.6,30.01,East,90,12.0,17.0,45,0.00,,,0.00,meteohub,2013-04-01 08:17:00,
2013-04-01 09:23:00,34.9,15.8,30.01,SE,135,10.0,14.0,45,0.00,,,0.00,meteohub,2013-04-01 08:23:00,
2013-04-01 09:30:00,35.1,16.0,30.01,East,90,6.0,14.0,45,0.00,,,0.00,meteohub,2013-04-01 08:30:00,
2013-04-01 09:35:00,35.1,15.4,30.01,ESE,112,13.0,15.0,44,0.00,,,0.00,meteohub,2013-04-01 08:35:00,
2013-04-01 09:41:00,35.1,15.4,30.01,SE,135,9.0,15.0,44,0.00,,,0.00,meteohub,2013-04-01 08:41:00,
2013-04-01 09:46:00,35.2,15.6,30.01,ESE,112,10.0,15.0,44,0.00,,,0.00,meteohub,2013-04-01 08:46:00,
2013-04-01 09:52:00,35.2,15.6,30.01,East,90,7.0,15.0,44,0.00,,,0.00,meteohub,2013-04-01 08:52:00,
2013-04-01 09:58:00,35.4,15.8,30.01,ESE,112,15.0,15.0,44,0.00,,,0.00,meteohub,2013-04-01 08:58:00,
2013-04-01 10:03:00,35.6,15.4,30.04,ESE,112,10.0,17.0,43,0.00,,,0.00,meteohub,2013-04-01 09:03:00,
2013-04-01 10:09:00,35.8,14.4,30.04,East,90,11.0,17.0,41,0.00,,,0.00,meteohub,2013-04-01 09:09:00,
2013-04-01 10:14:00,36.0,15.1,30.04,East,90,5.0,17.0,42,0.00,,,0.00,meteohub,2013-04-01 09:14:00,
2013-04-01 10:19:00,36.1,14.7,30.04,East,90,9.0,16.0,41,0.00,,,0.00,meteohub,2013-04-01 09:19:00,
2013-04-01 10:24:00,36.3,14.9,30.04,East,90,9.0,16.0,41,0.00,,,0.00,meteohub,2013-04-01 09:24:00,
2013-04-01 10:29:00,36.7,15.3,30.04,East,90,12.0,13.0,41,0.00,,,0.00,meteohub,2013-04-01 09:29:00,
2013-04-01 10:34:00,36.9,15.4,30.01,East,90,8.0,13.0,41,0.00,,,0.00,meteohub,2013-04-01 09:34:00,
2013-04-01 10:39:00,36.9,14.9,30.01,ESE,112,11.0,13.0,40,0.00,,,0.00,meteohub,2013-04-01 09:39:00,
2013-04-01 10:44:00,37.0,15.1,30.01,ENE,68,7.0,13.0,40,0.00,,,0.00,meteohub,2013-04-01 09:44:00,
2013-04-01 10:50:00,37.0,15.1,30.01,East,90,13.0,14.0,40,0.00,,,0.00,meteohub,2013-04-01 09:50:00,
2013-04-01 10:55:00,37.0,15.1,30.01,East,90,10.0,15.0,40,0.00,,,0.00,meteohub,2013-04-01 09:55:00,
2013-04-01 11:01:00,37.4,15.3,30.01,East,90,11.0,15.0,40,0.00,,,0.00,meteohub,2013-04-01 10:01:00,
2013-04-01 11:06:00,37.6,15.4,30.01,ENE,68,9.0,15.0,40,0.00,,,0.00,meteohub,2013-04-01 10:06:00,
2013-04-01 11:11:00,37.8,15.6,30.01,East,90,7.0,15.0,40,0.00,,,0.00,meteohub,2013-04-01 10:11:00,
2013-04-01 11:17:00,37.8,15.6,30.01,ESE,112,16.0,17.0,40,0.00,,,0.00,meteohub,2013-04-01 10:17:00,
2013-04-01 11:22:00,37.9,15.8,30.04,East,90,11.0,18.0,40,0.00,,,0.00,meteohub,2013-04-01 10:22:00,
2013-04-01 11:27:00,37.9,15.8,30.04,SE,135,13.0,21.0,40,0.00,,,0.00,meteohub,2013-04-01 10:27:00,
2013-04-01 11:32:00,38.3,16.2,30.04,East,90,12.0,21.0,40,0.00,,,0.00,meteohub,2013-04-01 10:32:00,
2013-04-01 11:37:00,38.5,16.3,30.04,SE,135,15.0,21.0,40,0.00,,,0.00,meteohub,2013-04-01 10:37:00,
2013-04-01 11:42:00,38.8,16.7,30.04,ESE,112,13.0,19.0,40,0.00,,,0.00,meteohub,2013-04-01 10:42:00,
2013-04-01 11:47:00,38.8,16.7,30.04,East,90,12.0,22.0,40,0.00,,,0.00,meteohub,2013-04-01 10:47:00,
2013-04-01 11:52:00,38.7,16.5,30.04,SE,135,20.0,22.0,40,0.00,,,0.00,meteohub,2013-04-01 10:52:00,
2013-04-01 11:58:00,38.8,16.7,30.04,East,90,13.0,22.0,40,0.00,,,0.00,meteohub,2013-04-01 10:58:00,
2013-04-01 12:04:00,38.8,16.0,30.04,East,90,13.0,20.0,39,0.00,,,0.00,meteohub,2013-04-01 11:04:00,
2013-04-01 12:09:00,38.7,16.0,30.04,ESE,112,9.0,20.0,39,0.00,,,0.00,meteohub,2013-04-01 11:09:00,
2013-04-01 12:14:00,39.0,16.2,30.04,East,90,13.0,19.0,39,0.00,,,0.00,meteohub,2013-04-01 11:14:00,
2013-04-01 12:19:00,39.2,16.3,30.04,East,90,15.0,19.0,39,0.00,,,0.00,meteohub,2013-04-01 11:19:00,
2013-04-01 12:24:00,39.4,16.0,30.04,East,90,15.0,19.0,38,0.00,,,0.00,meteohub,2013-04-01 11:24:00,
2013-04-01 12:29:00,39.4,16.5,30.04,East,90,14.0,19.0,39,0.00,,,0.00,meteohub,2013-04-01 11:29:00,
2013-04-01 12:35:00,39.4,16.5,30.04,East,90,13.0,19.0,39,0.00,,,0.00,meteohub,2013-04-01 11:35:00,
2013-04-01 12:40:00,39.2,15.8,30.04,East,90,10.0,17.0,38,0.00,,,0.00,meteohub,2013-04-01 11:40:00,
2013-04-01 12:46:00,39.2,15.8,30.04,ENE,68,12.0,17.0,38,0.00,,,0.00,meteohub,2013-04-01 11:46:00,
2013-04-01 12:51:00,39.4,16.5,30.04,East,90,11.0,17.0,39,0.00,,,0.00,meteohub,2013-04-01 11:51:00,
2013-04-01 12:56:00,39.7,16.9,30.04,East,90,10.0,15.0,39,0.00,,,0.00,meteohub,2013-04-01 11:56:00,
2013-04-01 13:01:00,39.9,17.1,30.04,East,90,15.0,17.0,39,0.00,,,0.00,meteohub,2013-04-01 12:01:00,
2013-04-01 13:07:00,39.7,16.3,30.04,ENE,68,10.0,18.0,38,0.00,,,0.00,meteohub,2013-04-01 12:07:00,
2013-04-01 13:12:00,39.9,17.1,30.04,East,90,15.0,18.0,39,0.00,,,0.00,meteohub,2013-04-01 12:12:00,
2013-04-01 13:17:00,40.1,17.2,30.04,ESE,112,13.0,18.0,39,0.00,,,0.00,meteohub,2013-04-01 12:17:00,
2013-04-01 13:23:00,40.5,17.6,30.07,East,90,15.0,16.0,39,0.00,,,0.00,meteohub,2013-04-01 12:23:00,
2013-04-01 13:28:00,40.5,17.6,30.07,ESE,112,11.0,19.0,39,0.00,,,0.00,meteohub,2013-04-01 12:28:00,
2013-04-01 13:34:00,41.0,17.4,30.04,ESE,112,13.0,24.0,38,0.00,,,0.00,meteohub,2013-04-01 12:34:00,
2013-04-01 13:39:00,41.2,17.6,30.04,East,90,13.0,24.0,38,0.00,,,0.00,meteohub,2013-04-01 12:39:00,
2013-04-01 13:44:00,41.5,18.0,30.04,SE,135,15.0,24.0,38,0.00,,,0.00,meteohub,2013-04-01 12:44:00,
2013-04-01 13:49:00,42.6,18.9,30.07,East,90,19.0,22.0,38,0.00,,,0.00,meteohub,2013-04-01 12:49:00,
2013-04-01 13:54:00,43.0,18.0,30.07,East,90,17.0,21.0,36,0.00,,,0.00,meteohub,2013-04-01 12:54:00,
2013-04-01 13:59:00,42.4,16.7,30.07,ENE,68,13.0,20.0,35,0.00,,,0.00,meteohub,2013-04-01 12:59:00,
2013-04-01 14:04:00,42.1,15.8,30.07,NE,45,13.0,20.0,34,0.00,,,0.00,meteohub,2013-04-01 13:04:00,
2013-04-01 14:10:00,43.3,19.6,30.07,East,90,9.0,20.0,38,0.00,,,0.00,meteohub,2013-04-01 13:10:00,
2013-04-01 14:15:00,44.2,17.1,30.07,East,90,15.0,21.0,33,0.00,,,0.00,meteohub,2013-04-01 13:15:00,
2013-04-01 14:20:00,44.6,18.0,30.07,ENE,68,13.0,21.0,34,0.00,,,0.00,meteohub,2013-04-01 13:20:00,
2013-04-01 14:25:00,44.8,18.1,30.07,ESE,112,13.0,21.0,34,0.00,,,0.00,meteohub,2013-04-01 13:25:00,
2013-04-01 14:30:00,45.1,17.1,30.07,East,90,21.0,21.0,32,0.00,,,0.00,meteohub,2013-04-01 13:30:00,
2013-04-01 14:35:00,45.0,16.2,30.07,East,90,15.0,21.0,31,0.00,,,0.00,meteohub,2013-04-01 13:35:00,
2013-04-01 14:40:00,44.8,16.0,30.07,East,90,11.0,21.0,31,0.00,,,0.00,meteohub,2013-04-01 13:40:00,
2013-04-01 14:45:00,44.6,16.0,30.07,ENE,68,19.0,22.0,31,0.00,,,0.00,meteohub,2013-04-01 13:45:00,
2013-04-01 14:51:00,44.8,16.7,30.07,East,90,20.0,22.0,32,0.00,,,0.00,meteohub,2013-04-01 13:51:00,
2013-04-01 14:56:00,44.6,16.0,30.07,East,90,13.0,22.0,31,0.00,,,0.00,meteohub,2013-04-01 13:56:00,
2013-04-01 15:01:00,45.1,17.1,30.07,East,90,15.0,22.0,32,0.00,,,0.00,meteohub,2013-04-01 14:01:00,
2013-04-01 15:07:00,45.1,15.6,30.07,NNE,22,14.0,21.0,30,0.00,,,0.00,meteohub,2013-04-01 14:07:00,
2013-04-01 15:12:00,44.2,15.6,30.07,SE,135,15.0,20.0,31,0.00,,,0.00,meteohub,2013-04-01 14:12:00,
2013-04-01 15:18:00,44.8,16.0,30.07,ENE,68,15.0,20.0,31,0.00,,,0.00,meteohub,2013-04-01 14:18:00,
2013-04-01 15:23:00,45.0,15.4,30.07,East,90,14.0,20.0,30,0.00,,,0.00,meteohub,2013-04-01 14:23:00,
2013-04-01 15:28:00,44.8,15.3,30.07,SE,135,17.0,17.0,30,0.00,,,0.00,meteohub,2013-04-01 14:28:00,
2013-04-01 15:33:00,45.1,16.3,30.07,ENE,68,14.0,17.0,31,0.00,,,0.00,meteohub,2013-04-01 14:33:00,
2013-04-01 15:39:00,45.7,16.9,30.07,SE,135,22.0,22.0,31,0.00,,,0.00,meteohub,2013-04-01 14:39:00,
2013-04-01 15:44:00,45.5,16.0,30.07,East,90,17.0,22.0,30,0.00,,,0.00,meteohub,2013-04-01 14:44:00,
2013-04-01 15:49:00,45.7,16.2,30.07,ESE,112,15.0,22.0,30,0.00,,,0.00,meteohub,2013-04-01 14:49:00,
2013-04-01 15:54:00,45.1,14.9,30.07,East,90,17.0,22.0,29,0.00,,,0.00,meteohub,2013-04-01 14:54:00,
2013-04-01 15:59:00,45.1,15.6,30.07,NE,45,10.0,22.0,30,0.00,,,0.00,meteohub,2013-04-01 14:59:00,
2013-04-01 16:05:00,45.1,15.6,30.07,East,90,17.0,22.0,30,0.00,,,0.00,meteohub,2013-04-01 15:05:00,
2013-04-01 16:10:00,45.3,16.5,30.07,NE,45,13.0,22.0,31,0.00,,,0.00,meteohub,2013-04-01 15:10:00,
2013-04-01 16:15:00,45.0,15.4,30.07,East,90,11.0,21.0,30,0.00,,,0.00,meteohub,2013-04-01 15:15:00,
2013-04-01 16:20:00,44.8,15.3,30.07,East,90,16.0,19.0,30,0.00,,,0.00,meteohub,2013-04-01 15:20:00,
2013-04-01 16:25:00,43.9,14.5,30.07,NE,45,14.0,20.0,30,0.00,,,0.00,meteohub,2013-04-01 15:25:00,
2013-04-01 16:30:00,43.7,15.1,30.07,ENE,68,10.0,21.0,31,0.00,,,0.00,meteohub,2013-04-01 15:30:00,
2013-04-01 16:35:00,44.1,16.2,30.07,East,90,11.0,21.0,32,0.00,,,0.00,meteohub,2013-04-01 15:35:00,
2013-04-01 16:40:00,44.1,16.2,30.07,East,90,13.0,21.0,32,0.00,,,0.00,meteohub,2013-04-01 15:40:00,
2013-04-01 16:46:00,43.9,16.0,30.07,NE,45,21.0,21.0,32,0.00,,,0.00,meteohub,2013-04-01 15:46:00,
2013-04-01 16:51:00,43.5,17.1,30.07,ENE,68,16.0,21.0,34,0.00,,,0.00,meteohub,2013-04-01 15:51:00,
2013-04-01 16:57:00,43.7,16.5,30.07,East,90,19.0,21.0,33,0.00,,,0.00,meteohub,2013-04-01 15:57:00,
2013-04-01 17:02:00,43.3,16.2,30.07,ENE,68,17.0,21.0,33,0.00,,,0.00,meteohub,2013-04-01 16:02:00,
2013-04-01 17:08:00,43.2,16.2,30.07,ENE,68,19.0,21.0,33,0.00,,,0.00,meteohub,2013-04-01 16:08:00,
2013-04-01 17:13:00,43.3,16.2,30.07,East,90,14.0,21.0,33,0.00,,,0.00,meteohub,2013-04-01 16:13:00,
2013-04-01 17:18:00,43.0,15.3,30.07,ENE,68,18.0,21.0,32,0.00,,,0.00,meteohub,2013-04-01 16:18:00,
2013-04-01 17:24:00,42.8,15.1,30.07,ENE,68,20.0,21.0,32,0.00,,,0.00,meteohub,2013-04-01 16:24:00,
2013-04-01 17:29:00,42.6,15.6,30.07,NE,45,13.0,22.0,33,0.00,,,0.00,meteohub,2013-04-01 16:29:00,
2013-04-01 17:34:00,42.4,14.7,30.07,East,90,16.0,22.0,32,0.00,,,0.00,meteohub,2013-04-01 16:34:00,
2013-04-01 17:40:00,41.5,14.0,30.07,ENE,68,10.0,22.0,32,0.00,,,0.00,meteohub,2013-04-01 16:40:00,
2013-04-01 17:45:00,41.0,14.9,30.07,ENE,68,13.0,22.0,34,0.00,,,0.00,meteohub,2013-04-01 16:45:00,
2013-04-01 17:50:00,41.2,15.1,30.07,East,90,16.0,20.0,34,0.00,,,0.00,meteohub,2013-04-01 16:50:00,
2013-04-01 17:56:00,40.6,15.3,30.07,ENE,68,19.0,20.0,35,0.00,,,0.00,meteohub,2013-04-01 16:56:00,
2013-04-01 18:01:00,40.6,15.8,30.07,East,90,12.0,22.0,36,0.00,,,0.00,meteohub,2013-04-01 17:01:00,
2013-04-01 18:07:00,41.4,15.8,30.07,East,90,18.0,22.0,35,0.00,,,0.00,meteohub,2013-04-01 17:07:00,
2013-04-01 18:12:00,41.4,15.8,30.07,East,90,15.0,22.0,35,0.00,,,0.00,meteohub,2013-04-01 17:12:00,
2013-04-01 18:17:00,41.2,15.6,30.07,East,90,12.0,20.0,35,0.00,,,0.00,meteohub,2013-04-01 17:17:00,
2013-04-01 18:22:00,41.2,15.6,30.07,ENE,68,16.0,20.0,35,0.00,,,0.00,meteohub,2013-04-01 17:22:00,
2013-04-01 18:27:00,41.0,15.4,30.07,East,90,12.0,20.0,35,0.00,,,0.00,meteohub,2013-04-01 17:27:00,
2013-04-01 18:32:00,40.6,15.8,30.07,East,90,16.0,20.0,36,0.00,,,0.00,meteohub,2013-04-01 17:32:00,
2013-04-01 18:37:00,40.1,15.4,30.07,NE,45,13.0,18.0,36,0.00,,,0.00,meteohub,2013-04-01 17:37:00,
2013-04-01 18:42:00,39.9,16.5,30.07,ENE,68,11.0,18.0,38,0.00,,,0.00,meteohub,2013-04-01 17:42:00,
2013-04-01 18:48:00,39.7,15.6,30.07,East,90,10.0,18.0,37,0.00,,,0.00,meteohub,2013-04-01 17:48:00,
2013-04-01 18:53:00,39.7,15.6,30.07,ENE,68,11.0,19.0,37,0.00,,,0.00,meteohub,2013-04-01 17:53:00,
2013-04-01 18:58:00,39.6,15.4,30.07,East,90,10.0,19.0,37,0.00,,,0.00,meteohub,2013-04-01 17:58:00,
2013-04-01 19:03:00,39.4,15.3,30.07,ENE,68,15.0,19.0,37,0.00,,,0.00,meteohub,2013-04-01 18:03:00,
2013-04-01 19:08:00,39.0,15.6,30.07,ENE,68,8.0,17.0,38,0.00,,,0.00,meteohub,2013-04-01 18:08:00,
2013-04-01 19:13:00,38.3,14.4,30.07,East,90,13.0,17.0,37,0.00,,,0.00,meteohub,2013-04-01 18:13:00,
2013-04-01 19:19:00,37.9,15.3,30.07,ENE,68,7.0,17.0,39,0.00,,,0.00,meteohub,2013-04-01 18:19:00,
2013-04-01 19:24:00,37.6,14.9,30.07,ENE,68,9.0,15.0,39,0.00,,,0.00,meteohub,2013-04-01 18:24:00,
2013-04-01 19:29:00,37.4,14.7,30.07,ENE,68,13.0,15.0,39,0.00,,,0.00,meteohub,2013-04-01 18:29:00,
2013-04-01 19:35:00,37.4,15.3,30.07,ENE,68,9.0,15.0,40,0.00,,,0.00,meteohub,2013-04-01 18:35:00,
2013-04-01 19:41:00,37.2,15.3,30.07,ENE,68,12.0,15.0,40,0.00,,,0.00,meteohub,2013-04-01 18:41:00,
2013-04-01 19:46:00,37.0,15.6,30.07,ENE,68,12.0,15.0,41,0.00,,,0.00,meteohub,2013-04-01 18:46:00,
2013-04-01 19:51:00,36.9,15.4,30.10,East,90,9.0,15.0,41,0.00,,,0.00,meteohub,2013-04-01 18:51:00,
2013-04-01 19:57:00,36.7,15.3,30.10,East,90,10.0,15.0,41,0.00,,,0.00,meteohub,2013-04-01 18:57:00,
2013-04-01 20:02:00,36.7,15.3,30.10,East,90,7.0,15.0,41,0.00,,,0.00,meteohub,2013-04-01 19:02:00,
2013-04-01 20:07:00,36.5,15.6,30.10,ENE,68,8.0,14.0,42,0.00,,,0.00,meteohub,2013-04-01 19:07:00,
2013-04-01 20:12:00,36.5,15.6,30.10,ENE,68,9.0,14.0,42,0.00,,,0.00,meteohub,2013-04-01 19:12:00,
2013-04-01 20:18:00,36.3,15.4,30.10,East,90,8.0,13.0,42,0.00,,,0.00,meteohub,2013-04-01 19:18:00,
2013-04-01 20:23:00,36.3,15.4,30.10,ENE,68,6.0,13.0,42,0.00,,,0.00,meteohub,2013-04-01 19:23:00,
2013-04-01 20:28:00,36.3,15.4,30.10,ENE,68,13.0,13.0,42,0.00,,,0.00,meteohub,2013-04-01 19:28:00,
2013-04-01 20:33:00,36.3,15.4,30.10,ENE,68,9.0,16.0,42,0.00,,,0.00,meteohub,2013-04-01 19:33:00,
2013-04-01 20:38:00,36.3,15.4,30.10,ENE,68,9.0,16.0,42,0.00,,,0.00,meteohub,2013-04-01 19:38:00,
2013-04-01 20:43:00,36.3,15.4,30.10,East,90,8.0,16.0,42,0.00,,,0.00,meteohub,2013-04-01 19:43:00,
2013-04-01 20:48:00,36.3,15.4,30.10,East,90,13.0,16.0,42,0.00,,,0.00,meteohub,2013-04-01 19:48:00,
2013-04-01 20:54:00,36.1,15.3,30.10,East,90,13.0,16.0,42,0.00,,,0.00,meteohub,2013-04-01 19:54:00,
2013-04-01 20:59:00,36.0,15.1,30.10,ENE,68,8.0,14.0,42,0.00,,,0.00,meteohub,2013-04-01 19:59:00,
2013-04-01 21:05:00,35.8,15.1,30.10,ENE,68,8.0,14.0,42,0.00,,,0.00,meteohub,2013-04-01 20:05:00,
2013-04-01 21:11:00,35.8,15.1,30.10,East,90,11.0,14.0,42,0.00,,,0.00,meteohub,2013-04-01 20:11:00,
2013-04-01 21:16:00,35.6,14.9,30.10,ENE,68,11.0,14.0,42,0.00,,,0.00,meteohub,2013-04-01 20:16:00,
2013-04-01 21:21:00,35.6,14.9,30.10,East,90,10.0,13.0,42,0.00,,,0.00,meteohub,2013-04-01 20:21:00,
2013-04-01 21:26:00,35.6,14.9,30.10,ESE,112,8.0,13.0,42,0.00,,,0.00,meteohub,2013-04-01 20:26:00,
2013-04-01 21:31:00,35.4,14.7,30.10,East,90,8.0,13.0,42,0.00,,,0.00,meteohub,2013-04-01 20:31:00,
2013-04-01 21:36:00,35.4,14.7,30.10,East,90,10.0,11.0,42,0.00,,,0.00,meteohub,2013-04-01 20:36:00,
2013-04-01 21:41:00,35.4,15.3,30.10,East,90,10.0,11.0,43,0.00,,,0.00,meteohub,2013-04-01 20:41:00,
2013-04-01 21:47:00,35.4,15.3,30.10,ENE,68,8.0,11.0,43,0.00,,,0.00,meteohub,2013-04-01 20:47:00,
2013-04-01 21:52:00,35.6,15.4,30.10,East,90,6.0,10.0,43,0.00,,,0.00,meteohub,2013-04-01 20:52:00,
2013-04-01 21:57:00,35.6,15.4,30.10,East,90,6.0,10.0,43,0.00,,,0.00,meteohub,2013-04-01 20:57:00,
2013-04-01 22:02:00,35.6,16.0,30.10,East,90,10.0,10.0,44,0.00,,,0.00,meteohub,2013-04-01 21:02:00,
2013-04-01 22:07:00,35.6,16.0,30.10,ENE,68,8.0,11.0,44,0.00,,,0.00,meteohub,2013-04-01 21:07:00,
2013-04-01 22:12:00,35.8,16.0,30.10,ENE,68,9.0,13.0,44,0.00,,,0.00,meteohub,2013-04-01 21:12:00,
2013-04-01 22:17:00,35.8,16.0,30.10,East,90,15.0,15.0,44,0.00,,,0.00,meteohub,2013-04-01 21:17:00,
2013-04-01 22:22:00,35.8,15.6,30.10,East,90,6.0,15.0,43,0.00,,,0.00,meteohub,2013-04-01 21:22:00,
2013-04-01 22:27:00,35.8,15.6,30.10,East,90,11.0,15.0,43,0.00,,,0.00,meteohub,2013-04-01 21:27:00,
2013-04-01 22:33:00,35.8,15.6,30.10,ENE,68,9.0,15.0,43,0.00,,,0.00,meteohub,2013-04-01 21:33:00,
2013-04-01 22:38:00,35.8,15.6,30.10,East,90,8.0,13.0,43,0.00,,,0.00,meteohub,2013-04-01 21:38:00,
2013-04-01 22:43:00,35.8,15.6,30.10,ENE,68,8.0,13.0,43,0.00,,,0.00,meteohub,2013-04-01 21:43:00,
2013-04-01 22:48:00,35.8,15.6,30.10,NE,45,9.0,13.0,43,0.00,,,0.00,meteohub,2013-04-01 21:48:00,
2013-04-01 22:53:00,35.8,15.6,30.10,East,90,8.0,11.0,43,0.00,,,0.00,meteohub,2013-04-01 21:53:00,
2013-04-01 22:58:00,35.6,15.4,30.10,East,90,7.0,11.0,43,0.00,,,0.00,meteohub,2013-04-01 21:58:00,
2013-04-01 23:03:00,35.6,15.4,30.10,East,90,9.0,11.0,43,0.00,,,0.00,meteohub,2013-04-01 22:03:00,
2013-04-01 23:08:00,35.6,16.0,30.10,ENE,68,9.0,11.0,44,0.00,,,0.00,meteohub,2013-04-01 22:08:00,
2013-04-01 23:13:00,35.6,16.0,30.10,ENE,68,9.0,11.0,44,0.00,,,0.00,meteohub,2013-04-01 22:13:00,
2013-04-01 23:19:00,35.6,16.0,30.13,East,90,8.0,11.0,44,0.00,,,0.00,meteohub,2013-04-01 22:19:00,
2013-04-01 23:24:00,35.6,16.0,30.13,ENE,68,6.0,12.0,44,0.00,,,0.00,meteohub,2013-04-01 22:24:00,
2013-04-01 23:29:00,35.6,16.0,30.13,East,90,6.0,12.0,44,0.00,,,0.00,meteohub,2013-04-01 22:29:00,
2013-04-01 23:34:00,35.6,16.0,30.10,East,90,11.0,12.0,44,0.00,,,0.00,meteohub,2013-04-01 22:34:00,
2013-04-01 23:39:00,35.6,16.0,30.10,East,90,7.0,11.0,44,0.00,,,0.00,meteohub,2013-04-01 22:39:00,
2013-04-01 23:44:00,35.6,16.0,30.10,ENE,68,8.0,12.0,44,0.00,,,0.00,meteohub,2013-04-01 22:44:00,
2013-04-01 23:49:00,35.6,16.0,30.10,ENE,68,12.0,13.0,44,0.00,,,0.00,meteohub,2013-04-01 22:49:00,
2013-04-01 23:54:00,35.6,15.4,30.10,East,90,11.0,14.0,43,0.00,,,0.00,meteohub,2013-04-01 22:54:00,
2013-04-01 23:59:00,35.8,15.6,30.10,East,90,8.0,14.0,43,0.00,,,0.00,meteohub,2013-04-01 22:59:00,